Cedar Rapids, Iowa
Current Conditions -  °F | °C
As of 8:52 PM on Sunday 23 Nov 2014 (Local Time) from KCID Reporting Station
Light Rain Light Rain  
Wind Chill:   Ceiling: 300
Heat Index:   Visibility: 3mi
Dew Point:   Wind: 23mph
Humidity: 100%   Direction: 310°NW
Pressure: 29.22"   Gusts: 29mph
Location:  41.98°N, 91.67°W
Report Text: KCID 240252Z 31020G25KT 3SM -RA BR OVC003 07/07 A2922 RMK AO2 RAB38 SLP898 P0000 60000 T00670067 56021
Loading
Personal Weather Stations






























Interactive Weather Map New forecast layout! Learn more

10-Day Weather Forecast

Advertisements
Track Severe Weather on mobile